createdAt,value
2023-01-17T00:00:57.816Z,89.69
2023-01-17T00:03:28.065Z,89.73
2023-01-17T00:06:14.908Z,89.85
2023-01-17T00:09:13.209Z,89.91
2023-01-17T00:11:57.640Z,89.94
2023-01-17T00:14:27.577Z,90.19
2023-01-17T00:17:01.519Z,90.19
2023-01-17T00:19:58.063Z,90.34
2023-01-17T00:23:02.431Z,90.69
2023-01-17T00:26:00.758Z,90.69
2023-01-17T00:28:39.989Z,90.74
2023-01-17T00:31:29.934Z,90.64
2023-01-17T00:34:07.592Z,90.83
2023-01-17T00:36:40.818Z,90.98
2023-01-17T00:39:13.528Z,91.21
2023-01-17T00:41:48.473Z,90.95
2023-01-17T00:44:40.890Z,91.33
2023-01-17T00:47:29.293Z,91.42
2023-01-17T00:50:46.679Z,91.28
2023-01-17T00:53:36.385Z,91.48
2023-01-17T00:56:23.893Z,91.56
2023-01-17T00:59:15.246Z,91.96
2023-01-17T01:02:11.153Z,91.92
2023-01-17T01:05:04.510Z,91.88
2023-01-17T01:08:03.063Z,92.01
2023-01-17T01:10:59.344Z,92.24
2023-01-17T01:13:51.677Z,92.10
2023-01-17T01:16:40.954Z,92.10
2023-01-17T01:19:40.377Z,92.28
2023-01-17T01:22:30.128Z,92.01
2023-01-17T01:25:22.707Z,92.31
2023-01-17T01:28:22.188Z,92.17
2023-01-17T01:31:15.480Z,92.36
2023-01-17T01:33:44.690Z,92.42
2023-01-17T01:36:15.084Z,92.67
2023-01-17T01:38:55.878Z,92.57
2023-01-17T01:41:38.157Z,92.59
2023-01-17T01:44:50.411Z,92.57
2023-01-17T01:47:41.014Z,92.98
2023-01-17T01:50:26.444Z,92.95
2023-01-17T01:53:02.867Z,93.00
2023-01-17T01:55:39.085Z,93.37
2023-01-17T01:58:28.225Z,93.00
2023-01-17T02:01:10.671Z,93.33
2023-01-17T02:03:55.370Z,93.45
2023-01-17T02:06:40.238Z,93.45
2023-01-17T02:09:15.799Z,93.68
2023-01-17T02:12:07.419Z,93.68
2023-01-17T02:15:00.031Z,93.75
2023-01-17T02:18:22.095Z,94.02
2023-01-17T02:21:13.429Z,94.03
2023-01-17T02:24:10.901Z,94.14
2023-01-17T02:27:06.093Z,94.32
2023-01-17T02:30:16.389Z,94.35
2023-01-17T02:33:29.251Z,94.56
2023-01-17T02:36:23.666Z,94.46
2023-01-17T02:39:02.928Z,94.63
2023-01-17T02:41:42.459Z,94.95
2023-01-17T02:44:27.650Z,94.99
2023-01-17T02:46:58.453Z,94.89
2023-01-17T02:49:43.348Z,95.12
2023-01-17T02:52:54.177Z,95.10
2023-01-17T02:55:49.114Z,95.15
2023-01-17T02:58:56.218Z,94.94
2023-01-17T03:02:01.644Z,95.11
2023-01-17T03:04:50.044Z,95.31
2023-01-17T03:07:28.649Z,95.13
2023-01-17T03:10:06.499Z,95.05
2023-01-17T03:12:40.074Z,95.13
2023-01-17T03:15:47.445Z,94.95
2023-01-17T03:18:31.302Z,95.08
2023-01-17T03:21:23.972Z,94.73
2023-01-17T03:24:01.531Z,94.71
2023-01-17T03:26:32.942Z,94.87
2023-01-17T03:29:06.814Z,94.90
2023-01-17T03:31:36.508Z,94.92
2023-01-17T03:34:31.191Z,94.82
2023-01-17T03:37:04.656Z,94.74
2023-01-17T03:39:52.939Z,94.52
2023-01-17T03:42:42.999Z,94.57
2023-01-17T03:45:17.582Z,94.59
2023-01-17T03:47:57.482Z,94.37
2023-01-17T03:50:52.390Z,94.22
2023-01-17T03:53:24.136Z,94.22
2023-01-17T03:55:59.930Z,94.10
2023-01-17T03:58:45.162Z,94.11
2023-01-17T04:01:19.437Z,94.14
2023-01-17T04:04:07.486Z,93.97
2023-01-17T04:06:45.288Z,93.81
2023-01-17T04:09:22.928Z,93.75
2023-01-17T04:12:11.846Z,93.81
2023-01-17T04:14:50.433Z,93.52
2023-01-17T04:17:20.880Z,93.18
2023-01-17T04:19:53.011Z,93.18
2023-01-17T04:22:21.873Z,92.79
2023-01-17T04:24:55.799Z,92.69
2023-01-17T04:27:24.404Z,92.41
2023-01-17T04:29:53.354Z,92.19
2023-01-17T04:32:31.076Z,91.82
2023-01-17T04:35:17.505Z,91.68
2023-01-17T04:37:50.080Z,91.37
2023-01-17T04:40:19.613Z,91.17
2023-01-17T04:43:07.353Z,90.99
2023-01-17T04:45:36.077Z,90.79
2023-01-17T04:48:16.421Z,90.70
2023-01-17T04:50:46.311Z,90.28
2023-01-17T04:53:31.137Z,90.03
2023-01-17T04:56:11.089Z,89.69
2023-01-17T04:58:41.007Z,89.50
2023-01-17T05:01:10.133Z,89.23
2023-01-17T05:03:40.655Z,88.81
2023-01-17T05:06:11.911Z,88.32
2023-01-17T05:08:50.090Z,88.21
2023-01-17T05:11:29.110Z,87.66
2023-01-17T05:14:10.962Z,87.38
2023-01-17T05:16:40.014Z,87.00
2023-01-17T05:19:17.599Z,86.81
2023-01-17T05:21:54.752Z,86.57
2023-01-17T05:24:35.062Z,86.22
2023-01-17T05:27:08.813Z,86.22
2023-01-17T05:29:49.985Z,85.76
2023-01-17T05:32:52.627Z,85.26
2023-01-17T05:35:25.875Z,85.23
2023-01-17T05:38:02.463Z,85.15
2023-01-17T05:40:51.696Z,84.59
2023-01-17T05:43:33.397Z,84.61
2023-01-17T05:46:12.777Z,84.35
2023-01-17T05:48:53.917Z,84.33
2023-01-17T05:51:37.882Z,84.12
2023-01-17T05:54:10.402Z,84.08
2023-01-17T05:56:41.411Z,83.62
2023-01-17T05:59:14.265Z,83.64
2023-01-17T06:01:46.336Z,83.37
2023-01-17T06:04:24.672Z,83.02
2023-01-17T06:06:53.489Z,83.19
2023-01-17T06:09:28.651Z,83.17
2023-01-17T06:12:22.004Z,83.15
2023-01-17T06:15:13.973Z,83.09
2023-01-17T06:17:43.067Z,83.20
2023-01-17T06:20:14.507Z,83.14
2023-01-17T06:23:04.497Z,83.45
2023-01-17T06:26:04.756Z,83.81
2023-01-17T06:29:11.097Z,83.81
2023-01-17T06:32:17.759Z,84.09
2023-01-17T06:35:12.322Z,84.38
2023-01-17T06:37:49.180Z,84.76
2023-01-17T06:40:26.373Z,85.15
2023-01-17T06:42:59.955Z,85.89
2023-01-17T06:45:31.824Z,86.34
2023-01-17T06:48:12.267Z,87.03
2023-01-17T06:51:07.771Z,87.81
2023-01-17T06:53:42.121Z,87.93
2023-01-17T06:56:11.227Z,88.39
2023-01-17T06:58:39.828Z,88.66
2023-01-17T07:01:26.621Z,89.11
2023-01-17T07:03:55.166Z,89.37
2023-01-17T07:06:25.180Z,89.50
2023-01-17T07:08:53.590Z,89.73
2023-01-17T07:11:22.389Z,89.94
2023-01-17T07:13:50.797Z,90.24
2023-01-17T07:16:22.301Z,90.20
2023-01-17T07:18:58.268Z,90.36
2023-01-17T07:21:28.923Z,90.51
2023-01-17T07:24:01.310Z,90.85
2023-01-17T07:26:29.868Z,91.12
2023-01-17T07:28:58.713Z,91.04
2023-01-17T07:31:27.084Z,91.05
2023-01-17T07:33:58.826Z,90.87
2023-01-17T07:36:27.314Z,91.00
2023-01-17T07:39:00.691Z,90.89
2023-01-17T07:41:32.997Z,90.78
2023-01-17T07:44:02.049Z,90.83
2023-01-17T07:46:30.524Z,90.81
2023-01-17T07:48:58.838Z,90.85
2023-01-17T07:51:34.410Z,90.81
2023-01-17T07:54:06.192Z,90.61
2023-01-17T07:56:36.000Z,90.81
2023-01-17T07:59:04.175Z,90.61
2023-01-17T08:01:45.504Z,90.72
2023-01-17T08:04:22.517Z,90.84
2023-01-17T08:06:51.893Z,90.76
2023-01-17T08:09:29.310Z,90.61
2023-01-17T08:11:57.821Z,90.51
2023-01-17T08:14:27.229Z,90.49
2023-01-17T08:17:03.485Z,90.46
2023-01-17T08:19:32.323Z,90.45
2023-01-17T08:22:03.618Z,90.34
2023-01-17T08:24:37.663Z,90.09
2023-01-17T08:27:09.188Z,89.95
2023-01-17T08:29:46.946Z,89.77
2023-01-17T08:32:31.365Z,89.62
2023-01-17T08:35:09.552Z,89.09
2023-01-17T08:37:47.851Z,88.97
2023-01-17T08:40:36.763Z,88.67
2023-01-17T08:43:05.199Z,88.39
2023-01-17T08:45:36.637Z,88.07
2023-01-17T08:48:05.043Z,87.35
2023-01-17T08:50:53.494Z,86.43
2023-01-17T08:53:31.243Z,85.89
2023-01-17T08:56:06.350Z,85.87
2023-01-17T08:58:37.604Z,85.09
2023-01-17T09:01:08.949Z,83.80
2023-01-17T09:03:48.930Z,82.46
2023-01-17T09:06:48.615Z,82.86
2023-01-17T09:09:20.639Z,81.66
2023-01-17T09:12:06.895Z,81.14
2023-01-17T09:14:35.923Z,80.91
2023-01-17T09:17:07.193Z,79.12
2023-01-17T09:19:59.660Z,79.28
2023-01-17T09:22:39.474Z,79.21
2023-01-17T09:25:08.301Z,79.14
2023-01-17T09:27:36.759Z,78.45
2023-01-17T09:30:08.714Z,77.58
2023-01-17T09:32:37.390Z,77.22
2023-01-17T09:35:18.485Z,76.56
2023-01-17T09:37:51.921Z,77.35
2023-01-17T09:40:25.205Z,77.10
2023-01-17T09:43:02.648Z,76.26
2023-01-17T09:45:37.314Z,76.17
2023-01-17T09:48:23.479Z,75.73
2023-01-17T09:51:00.468Z,74.85
2023-01-17T09:53:37.739Z,74.62
2023-01-17T09:56:20.049Z,74.72
2023-01-17T09:59:39.730Z,74.55
2023-01-17T10:03:05.086Z,75.15
2023-01-17T10:06:00.287Z,74.59
2023-01-17T10:08:54.094Z,73.94
2023-01-17T10:11:41.595Z,73.80
2023-01-17T10:14:42.855Z,73.93
2023-01-17T10:17:27.738Z,73.85
2023-01-17T10:20:34.750Z,73.41
2023-01-17T10:23:36.518Z,73.72
2023-01-17T10:26:14.621Z,73.46
2023-01-17T10:28:54.468Z,73.17
2023-01-17T10:31:36.719Z,72.97
2023-01-17T10:34:23.414Z,73.31
2023-01-17T10:37:15.372Z,73.59
2023-01-17T10:39:46.732Z,73.61
2023-01-17T10:42:17.655Z,72.87
2023-01-17T10:45:25.776Z,72.49
2023-01-17T10:48:12.635Z,72.73
2023-01-17T10:51:16.076Z,72.82
2023-01-17T10:53:49.481Z,72.90
2023-01-17T10:56:28.989Z,73.13
2023-01-17T10:59:57.163Z,72.75
2023-01-17T11:02:54.812Z,72.75
2023-01-17T11:05:49.759Z,72.23
2023-01-17T11:08:21.223Z,72.62
2023-01-17T11:10:54.178Z,72.40
2023-01-17T11:13:58.593Z,72.14
2023-01-17T11:16:31.597Z,72.61
2023-01-17T11:19:45.725Z,72.99
2023-01-17T11:22:23.864Z,73.53
2023-01-17T11:24:55.706Z,73.70
2023-01-17T11:28:31.802Z,74.19
2023-01-17T11:31:39.892Z,74.43
2023-01-17T11:35:09.403Z,74.44
2023-01-17T11:37:49.010Z,74.63
2023-01-17T11:40:53.713Z,74.41
2023-01-17T11:43:27.647Z,74.17
2023-01-17T11:46:39.500Z,72.91
2023-01-17T11:49:39.524Z,72.65
2023-01-17T11:52:56.967Z,72.03
2023-01-17T11:55:28.206Z,71.59
2023-01-17T11:58:01.932Z,71.14
2023-01-17T12:00:58.866Z,70.83
2023-01-17T12:03:58.767Z,70.79
2023-01-17T12:06:56.415Z,70.61
2023-01-17T12:09:46.016Z,70.46
2023-01-17T12:13:03.180Z,68.77
2023-01-17T12:16:32.013Z,69.42
2023-01-17T12:19:32.483Z,68.86
2023-01-17T12:22:21.349Z,69.14
2023-01-17T12:25:22.837Z,68.59
2023-01-17T12:28:16.169Z,69.14
2023-01-17T12:32:00.033Z,68.76
2023-01-17T12:34:41.551Z,69.50
2023-01-17T12:37:39.257Z,68.96
2023-01-17T12:40:20.316Z,68.96
2023-01-17T12:43:58.501Z,68.86
2023-01-17T12:47:00.330Z,68.51
2023-01-17T12:50:06.990Z,68.25
2023-01-17T12:53:06.736Z,68.12
2023-01-17T12:56:16.222Z,68.66
2023-01-17T12:59:59.098Z,68.50
2023-01-17T13:03:24.875Z,68.29
2023-01-17T13:06:02.670Z,68.22
2023-01-17T13:09:12.610Z,67.75
2023-01-17T13:12:40.963Z,68.35
2023-01-17T13:15:38.226Z,68.74
2023-01-17T13:18:14.391Z,68.73
2023-01-17T13:21:27.515Z,68.98
2023-01-17T13:24:18.783Z,68.98
2023-01-17T13:26:56.461Z,68.70
2023-01-17T13:30:00.135Z,68.74
2023-01-17T13:33:20.611Z,68.68
2023-01-17T13:36:16.931Z,68.81
2023-01-17T13:39:53.371Z,68.78
2023-01-17T13:43:05.878Z,68.80
2023-01-17T13:45:36.921Z,68.68
2023-01-17T13:48:37.987Z,69.05
2023-01-17T13:51:35.040Z,68.92
2023-01-17T13:54:33.727Z,68.85
2023-01-17T13:57:47.561Z,69.19
2023-01-17T14:00:26.103Z,69.26
2023-01-17T14:02:55.620Z,69.56
2023-01-17T14:05:39.491Z,69.62
2023-01-17T14:08:18.369Z,69.58
2023-01-17T14:11:14.325Z,69.86
2023-01-17T14:13:43.439Z,69.87
2023-01-17T14:16:29.376Z,70.05
2023-01-17T14:18:58.336Z,70.01
2023-01-17T14:21:35.794Z,70.44
2023-01-17T14:24:10.645Z,70.20
2023-01-17T14:26:57.966Z,70.45
2023-01-17T14:29:48.622Z,70.57
2023-01-17T14:32:20.955Z,70.81
2023-01-17T14:34:51.687Z,70.96
2023-01-17T14:37:41.062Z,70.96
2023-01-17T14:40:29.987Z,71.01
2023-01-17T14:43:12.067Z,71.04
2023-01-17T14:46:05.333Z,71.30
2023-01-17T14:48:42.693Z,71.43
2023-01-17T14:51:20.556Z,71.05
2023-01-17T14:54:02.453Z,71.24
2023-01-17T14:56:42.307Z,71.19
2023-01-17T14:59:21.712Z,71.36
2023-01-17T15:02:18.913Z,71.23
2023-01-17T15:04:58.526Z,71.42
2023-01-17T15:07:40.193Z,71.47
2023-01-17T15:10:29.763Z,71.73
2023-01-17T15:13:06.003Z,71.99
2023-01-17T15:15:42.077Z,72.03
2023-01-17T15:18:31.549Z,72.04
2023-01-17T15:21:23.019Z,72.21
2023-01-17T15:23:58.110Z,72.35
2023-01-17T15:26:36.731Z,72.63
2023-01-17T15:29:11.548Z,72.67
2023-01-17T15:31:45.903Z,72.95
2023-01-17T15:35:03.109Z,73.04
2023-01-17T15:37:41.970Z,73.22
2023-01-17T15:40:26.845Z,73.24
2023-01-17T15:43:02.456Z,73.31
2023-01-17T15:45:33.649Z,73.47
2023-01-17T15:48:40.712Z,73.53
2023-01-17T15:51:12.314Z,73.66
2023-01-17T15:53:43.303Z,73.89
2023-01-17T15:56:33.028Z,74.30
2023-01-17T15:59:41.291Z,74.57
2023-01-17T16:02:33.557Z,75.03
2023-01-17T16:05:27.881Z,75.01
2023-01-17T16:08:17.556Z,75.24
2023-01-17T16:10:46.070Z,75.51
2023-01-17T16:13:14.723Z,75.77
2023-01-17T16:15:43.455Z,75.75
2023-01-17T16:18:26.925Z,75.95
2023-01-17T16:21:19.491Z,76.14
2023-01-17T16:23:48.109Z,76.38
2023-01-17T16:26:16.845Z,76.94
2023-01-17T16:28:46.020Z,76.98
2023-01-17T16:31:14.541Z,77.11
2023-01-17T16:33:43.020Z,77.56
2023-01-17T16:36:16.658Z,78.01
2023-01-17T16:38:51.582Z,78.44
2023-01-17T16:41:20.546Z,78.53
2023-01-17T16:44:11.695Z,79.20
2023-01-17T16:47:05.110Z,79.38
2023-01-17T16:49:39.879Z,79.61
2023-01-17T16:52:08.477Z,80.03
2023-01-17T16:54:41.569Z,80.03
2023-01-17T16:57:10.057Z,80.26
2023-01-17T16:59:50.126Z,80.34
2023-01-17T17:02:23.246Z,80.41
2023-01-17T17:04:55.160Z,80.83
2023-01-17T17:07:24.250Z,81.15
2023-01-17T17:09:52.712Z,81.23
2023-01-17T17:12:30.196Z,81.50
2023-01-17T17:15:04.688Z,81.56
2023-01-17T17:17:41.476Z,81.52
2023-01-17T17:20:16.257Z,81.85
2023-01-17T17:23:02.669Z,81.93
2023-01-17T17:25:36.649Z,82.30
2023-01-17T17:28:17.123Z,82.20
2023-01-17T17:30:46.122Z,82.33
2023-01-17T17:33:17.832Z,82.27
2023-01-17T17:35:49.393Z,82.42
2023-01-17T17:38:20.438Z,82.69
2023-01-17T17:40:49.058Z,82.93
2023-01-17T17:43:17.488Z,83.11
2023-01-17T17:45:49.093Z,83.09
2023-01-17T17:48:17.720Z,83.26
2023-01-17T17:51:06.449Z,83.60
2023-01-17T17:53:35.284Z,83.67
2023-01-17T17:56:05.841Z,83.72
2023-01-17T17:58:35.767Z,83.88
2023-01-17T18:01:07.201Z,84.01
2023-01-17T18:03:35.754Z,84.14
2023-01-17T18:06:07.029Z,84.01
2023-01-17T18:08:37.128Z,83.95
2023-01-17T18:11:11.248Z,84.11
2023-01-17T18:13:40.512Z,84.10
2023-01-17T18:16:16.200Z,83.97
2023-01-17T18:18:48.246Z,84.03
2023-01-17T18:21:28.291Z,83.98
2023-01-17T18:24:09.969Z,84.33
2023-01-17T18:26:47.875Z,83.98
2023-01-17T18:29:18.210Z,84.17
2023-01-17T18:31:47.945Z,84.18
2023-01-17T18:34:21.299Z,84.33
2023-01-17T18:36:51.220Z,84.16
2023-01-17T18:39:29.649Z,84.32
2023-01-17T18:42:02.577Z,84.26
2023-01-17T18:44:34.087Z,84.21
2023-01-17T18:47:07.100Z,84.36
2023-01-17T18:49:38.206Z,84.45
2023-01-17T18:52:08.196Z,84.44
2023-01-17T18:54:40.238Z,84.57
2023-01-17T18:57:10.872Z,84.54
2023-01-17T18:59:51.734Z,84.23
2023-01-17T19:02:20.282Z,84.58
2023-01-17T19:04:48.905Z,84.73
2023-01-17T19:07:17.381Z,84.39
2023-01-17T19:09:54.785Z,84.70
2023-01-17T19:12:24.587Z,84.58
2023-01-17T19:15:06.696Z,84.82
2023-01-17T19:17:37.752Z,85.02
2023-01-17T19:20:07.278Z,85.24
2023-01-17T19:22:43.495Z,85.30
2023-01-17T19:25:15.458Z,85.36
2023-01-17T19:27:44.152Z,85.35
2023-01-17T19:30:13.055Z,85.23
2023-01-17T19:32:47.621Z,85.47
2023-01-17T19:35:19.264Z,85.06
2023-01-17T19:37:51.359Z,84.89
2023-01-17T19:40:19.858Z,84.88
2023-01-17T19:42:48.252Z,84.90
2023-01-17T19:45:26.126Z,84.60
2023-01-17T19:47:55.077Z,84.85
2023-01-17T19:50:24.047Z,84.52
2023-01-17T19:53:01.585Z,84.69
2023-01-17T19:55:58.996Z,84.38
2023-01-17T19:58:36.103Z,84.61
2023-01-17T20:01:30.416Z,84.80
2023-01-17T20:04:02.545Z,84.86
2023-01-17T20:06:35.947Z,84.81
2023-01-17T20:09:06.214Z,84.68
2023-01-17T20:11:35.713Z,84.69
2023-01-17T20:14:07.822Z,85.08
2023-01-17T20:16:38.955Z,85.17
2023-01-17T20:19:07.405Z,85.32
2023-01-17T20:21:38.515Z,85.34
2023-01-17T20:24:09.044Z,85.31
2023-01-17T20:26:37.815Z,85.66
2023-01-17T20:29:14.155Z,85.50
2023-01-17T20:31:43.953Z,85.82
2023-01-17T20:34:14.082Z,85.76
2023-01-17T20:36:51.334Z,85.55
2023-01-17T20:39:22.901Z,85.53
2023-01-17T20:42:01.671Z,85.75
2023-01-17T20:44:32.287Z,86.12
2023-01-17T20:47:00.976Z,85.61
2023-01-17T20:49:29.604Z,85.76
2023-01-17T20:52:01.492Z,85.65
2023-01-17T20:54:29.990Z,85.40
2023-01-17T20:56:59.738Z,85.39
2023-01-17T20:59:28.137Z,85.44
2023-01-17T21:01:56.763Z,85.28
2023-01-17T21:04:26.022Z,85.00
2023-01-17T21:06:54.866Z,85.28
2023-01-17T21:09:23.714Z,85.18
2023-01-17T21:11:54.475Z,85.47
2023-01-17T21:14:23.043Z,85.30
2023-01-17T21:16:51.316Z,85.39
2023-01-17T21:19:20.718Z,85.41
2023-01-17T21:21:50.284Z,85.35
2023-01-17T21:24:21.187Z,85.59
2023-01-17T21:26:52.959Z,85.66
2023-01-17T21:29:28.966Z,85.49
2023-01-17T21:31:57.582Z,85.65
2023-01-17T21:34:28.148Z,85.59
2023-01-17T21:36:56.658Z,85.87
2023-01-17T21:39:25.116Z,85.97
2023-01-17T21:41:53.543Z,85.83
2023-01-17T21:44:23.603Z,85.71
2023-01-17T21:46:55.101Z,85.80
2023-01-17T21:49:27.326Z,85.91
2023-01-17T21:51:55.532Z,85.95
2023-01-17T21:54:45.212Z,86.37
2023-01-17T21:57:35.186Z,85.97
2023-01-17T22:00:14.610Z,86.42
2023-01-17T22:02:48.237Z,86.90
2023-01-17T22:05:20.197Z,86.75
2023-01-17T22:08:07.114Z,86.95
2023-01-17T22:10:44.699Z,87.43
2023-01-17T22:13:18.485Z,87.45
2023-01-17T22:15:58.625Z,87.68
2023-01-17T22:18:27.869Z,87.43
2023-01-17T22:20:56.942Z,87.64
2023-01-17T22:23:25.204Z,88.09
2023-01-17T22:25:53.413Z,87.87
2023-01-17T22:28:21.511Z,88.21
2023-01-17T22:30:56.911Z,88.34
2023-01-17T22:33:25.549Z,88.42
2023-01-17T22:35:58.607Z,88.50
2023-01-17T22:38:26.798Z,88.92
2023-01-17T22:41:01.566Z,89.07
2023-01-17T22:43:29.647Z,89.16
2023-01-17T22:46:00.779Z,89.19
2023-01-17T22:48:31.137Z,89.49
2023-01-17T22:51:02.155Z,89.58
2023-01-17T22:53:31.276Z,89.57
2023-01-17T22:56:07.902Z,89.58
2023-01-17T22:58:36.521Z,89.62
2023-01-17T23:01:11.107Z,90.00
2023-01-17T23:03:44.966Z,89.81
2023-01-17T23:06:16.508Z,89.72
2023-01-17T23:08:47.390Z,90.00
2023-01-17T23:11:40.976Z,89.77
2023-01-17T23:14:18.378Z,89.81
2023-01-17T23:17:11.380Z,89.90
2023-01-17T23:19:41.448Z,90.15
2023-01-17T23:22:16.022Z,89.82
2023-01-17T23:24:58.941Z,90.16
2023-01-17T23:27:50.415Z,90.02
2023-01-17T23:30:30.057Z,89.93
2023-01-17T23:33:01.159Z,90.00
2023-01-17T23:35:33.383Z,90.05
2023-01-17T23:38:20.397Z,90.10
2023-01-17T23:41:27.890Z,90.07
2023-01-17T23:44:08.810Z,90.18
2023-01-17T23:46:39.801Z,90.31
2023-01-17T23:49:08.516Z,90.00
2023-01-17T23:51:45.072Z,90.42
2023-01-17T23:54:22.853Z,90.00
2023-01-17T23:57:02.822Z,89.94
2023-01-17T23:59:31.339Z,90.01
